sensor_id;sensor_type;location;lat;lon;timestamp;temperature;humidity
18147;DHT22;9199;48.832;9.182;2024-02-16T00:01:03;10.10;99.90
18147;DHT22;9199;48.832;9.182;2024-02-16T00:03:30;10.10;99.90
18147;DHT22;9199;48.832;9.182;2024-02-16T00:05:57;10.10;99.90
18147;DHT22;9199;48.832;9.182;2024-02-16T00:08:25;10.10;99.90
18147;DHT22;9199;48.832;9.182;2024-02-16T00:10:52;10.00;99.90
18147;DHT22;9199;48.832;9.182;2024-02-16T00:13:18;10.00;99.90
18147;DHT22;9199;48.832;9.182;2024-02-16T00:15:45;10.00;99.90
18147;DHT22;9199;48.832;9.182;2024-02-16T00:18:12;10.00;99.90
18147;DHT22;9199;48.832;9.182;2024-02-16T00:20:39;10.10;99.90
18147;DHT22;9199;48.832;9.182;2024-02-16T00:23:06;10.10;99.90
18147;DHT22;9199;48.832;9.182;2024-02-16T00:25:34;10.10;99.90
18147;DHT22;9199;48.832;9.182;2024-02-16T00:28:00;10.10;99.90
18147;DHT22;9199;48.832;9.182;2024-02-16T00:30:28;10.10;99.90
18147;DHT22;9199;48.832;9.182;2024-02-16T00:32:55;10.00;99.90
18147;DHT22;9199;48.832;9.182;2024-02-16T00:35:21;10.00;99.90
18147;DHT22;9199;48.832;9.182;2024-02-16T00:37:49;10.00;99.90
18147;DHT22;9199;48.832;9.182;2024-02-16T00:40:16;10.00;99.90
18147;DHT22;9199;48.832;9.182;2024-02-16T00:42:44;10.00;99.90
18147;DHT22;9199;48.832;9.182;2024-02-16T00:45:10;10.00;99.90
18147;DHT22;9199;48.832;9.182;2024-02-16T00:47:37;10.10;99.90
18147;DHT22;9199;48.832;9.182;2024-02-16T00:50:05;10.10;99.90
18147;DHT22;9199;48.832;9.182;2024-02-16T00:52:34;10.10;99.90
18147;DHT22;9199;48.832;9.182;2024-02-16T00:55:01;10.10;99.90
18147;DHT22;9199;48.832;9.182;2024-02-16T00:57:29;10.20;99.90
18147;DHT22;9199;48.832;9.182;2024-02-16T00:59:57;10.20;99.90
18147;DHT22;9199;48.832;9.182;2024-02-16T01:02:24;10.20;99.90
18147;DHT22;9199;48.832;9.182;2024-02-16T01:04:51;10.10;99.90
18147;DHT22;9199;48.832;9.182;2024-02-16T01:07:20;10.10;99.90
18147;DHT22;9199;48.832;9.182;2024-02-16T01:09:46;10.10;99.90
18147;DHT22;9199;48.832;9.182;2024-02-16T01:12:14;10.00;99.90
18147;DHT22;9199;48.832;9.182;2024-02-16T01:14:41;10.00;99.90
18147;DHT22;9199;48.832;9.182;2024-02-16T01:17:09;10.00;99.90
18147;DHT22;9199;48.832;9.182;2024-02-16T01:19:35;10.00;99.90
18147;DHT22;9199;48.832;9.182;2024-02-16T01:22:02;10.00;99.90
18147;DHT22;9199;48.832;9.182;2024-02-16T01:24:29;9.90;99.90
18147;DHT22;9199;48.832;9.182;2024-02-16T01:26:56;10.00;99.90
18147;DHT22;9199;48.832;9.182;2024-02-16T01:29:23;10.00;99.90
18147;DHT22;9199;48.832;9.182;2024-02-16T01:31:50;10.00;99.90
18147;DHT22;9199;48.832;9.182;2024-02-16T01:34:18;10.00;99.90
18147;DHT22;9199;48.832;9.182;2024-02-16T01:36:45;10.00;99.90
18147;DHT22;9199;48.832;9.182;2024-02-16T01:39:12;10.00;99.90
18147;DHT22;9199;48.832;9.182;2024-02-16T01:41:38;10.00;99.90
18147;DHT22;9199;48.832;9.182;2024-02-16T01:44:05;10.00;99.90
18147;DHT22;9199;48.832;9.182;2024-02-16T01:46:34;10.00;99.90
18147;DHT22;9199;48.832;9.182;2024-02-16T01:49:01;10.00;99.90
18147;DHT22;9199;48.832;9.182;2024-02-16T01:51:29;10.00;99.90
18147;DHT22;9199;48.832;9.182;2024-02-16T01:53:56;10.00;99.90
18147;DHT22;9199;48.832;9.182;2024-02-16T01:56:22;10.10;99.90
18147;DHT22;9199;48.832;9.182;2024-02-16T01:58:50;10.10;99.90
18147;DHT22;9199;48.832;9.182;2024-02-16T02:01:17;10.10;99.90
18147;DHT22;9199;48.832;9.182;2024-02-16T02:03:44;10.10;99.90
18147;DHT22;9199;48.832;9.182;2024-02-16T02:06:10;10.10;99.90
18147;DHT22;9199;48.832;9.182;2024-02-16T02:08:38;10.20;99.90
18147;DHT22;9199;48.832;9.182;2024-02-16T02:11:05;10.20;99.90
18147;DHT22;9199;48.832;9.182;2024-02-16T02:13:32;10.30;99.90
18147;DHT22;9199;48.832;9.182;2024-02-16T02:15:59;10.30;99.90
18147;DHT22;9199;48.832;9.182;2024-02-16T02:18:27;10.30;99.90
18147;DHT22;9199;48.832;9.182;2024-02-16T02:20:53;10.20;99.90
18147;DHT22;9199;48.832;9.182;2024-02-16T02:23:22;10.20;99.90
18147;DHT22;9199;48.832;9.182;2024-02-16T02:25:48;10.30;99.90
18147;DHT22;9199;48.832;9.182;2024-02-16T02:28:15;10.40;99.90
18147;DHT22;9199;48.832;9.182;2024-02-16T02:30:43;10.50;99.90
18147;DHT22;9199;48.832;9.182;2024-02-16T02:33:10;10.60;99.90
18147;DHT22;9199;48.832;9.182;2024-02-16T02:35:39;10.60;99.90
18147;DHT22;9199;48.832;9.182;2024-02-16T02:38:05;10.60;99.90
18147;DHT22;9199;48.832;9.182;2024-02-16T02:40:33;10.50;99.90
18147;DHT22;9199;48.832;9.182;2024-02-16T02:43:00;10.40;99.90
18147;DHT22;9199;48.832;9.182;2024-02-16T02:45:27;10.40;99.90
18147;DHT22;9199;48.832;9.182;2024-02-16T02:47:54;10.30;99.90
18147;DHT22;9199;48.832;9.182;2024-02-16T02:50:21;10.30;99.90
18147;DHT22;9199;48.832;9.182;2024-02-16T02:52:48;10.30;99.90
18147;DHT22;9199;48.832;9.182;2024-02-16T02:55:15;10.30;99.90
18147;DHT22;9199;48.832;9.182;2024-02-16T02:57:46;10.30;99.90
18147;DHT22;9199;48.832;9.182;2024-02-16T03:00:14;10.30;99.90
18147;DHT22;9199;48.832;9.182;2024-02-16T03:02:41;10.30;99.90
18147;DHT22;9199;48.832;9.182;2024-02-16T03:05:09;10.30;99.90
18147;DHT22;9199;48.832;9.182;2024-02-16T03:07:37;10.30;99.90
18147;DHT22;9199;48.832;9.182;2024-02-16T03:10:04;10.30;99.90
18147;DHT22;9199;48.832;9.182;2024-02-16T03:12:32;10.30;99.90
18147;DHT22;9199;48.832;9.182;2024-02-16T03:15:00;10.30;99.90
18147;DHT22;9199;48.832;9.182;2024-02-16T03:17:27;10.20;99.90
18147;DHT22;9199;48.832;9.182;2024-02-16T03:19:53;10.20;99.90
18147;DHT22;9199;48.832;9.182;2024-02-16T03:22:20;10.20;99.90
18147;DHT22;9199;48.832;9.182;2024-02-16T03:24:47;10.30;99.90
18147;DHT22;9199;48.832;9.182;2024-02-16T03:27:14;10.40;99.90
18147;DHT22;9199;48.832;9.182;2024-02-16T03:29:40;10.50;99.90
18147;DHT22;9199;48.832;9.182;2024-02-16T03:32:08;10.50;99.90
18147;DHT22;9199;48.832;9.182;2024-02-16T03:34:35;10.60;99.90
18147;DHT22;9199;48.832;9.182;2024-02-16T03:37:02;10.60;99.90
18147;DHT22;9199;48.832;9.182;2024-02-16T03:39:29;10.60;99.90
18147;DHT22;9199;48.832;9.182;2024-02-16T03:41:55;10.60;99.90
18147;DHT22;9199;48.832;9.182;2024-02-16T03:44:22;10.60;99.90
18147;DHT22;9199;48.832;9.182;2024-02-16T03:46:49;10.60;99.90
18147;DHT22;9199;48.832;9.182;2024-02-16T03:49:17;10.60;99.90
18147;DHT22;9199;48.832;9.182;2024-02-16T03:51:44;10.50;99.90
18147;DHT22;9199;48.832;9.182;2024-02-16T03:54:11;10.50;99.90
18147;DHT22;9199;48.832;9.182;2024-02-16T03:56:38;10.40;99.90
18147;DHT22;9199;48.832;9.182;2024-02-16T03:59:04;10.30;99.90
18147;DHT22;9199;48.832;9.182;2024-02-16T04:01:31;10.30;99.90
18147;DHT22;9199;48.832;9.182;2024-02-16T04:03:58;10.20;99.90
18147;DHT22;9199;48.832;9.182;2024-02-16T04:06:26;10.20;99.90
18147;DHT22;9199;48.832;9.182;2024-02-16T04:08:52;10.20;99.90
18147;DHT22;9199;48.832;9.182;2024-02-16T04:11:19;10.30;99.90
18147;DHT22;9199;48.832;9.182;2024-02-16T04:13:46;10.40;99.90
18147;DHT22;9199;48.832;9.182;2024-02-16T04:16:12;10.40;99.90
18147;DHT22;9199;48.832;9.182;2024-02-16T04:18:39;10.50;99.90
18147;DHT22;9199;48.832;9.182;2024-02-16T04:21:06;10.60;99.90
18147;DHT22;9199;48.832;9.182;2024-02-16T04:23:34;10.60;99.90
18147;DHT22;9199;48.832;9.182;2024-02-16T04:26:00;10.60;99.90
18147;DHT22;9199;48.832;9.182;2024-02-16T04:28:27;10.60;99.90
18147;DHT22;9199;48.832;9.182;2024-02-16T04:30:54;10.60;99.90
18147;DHT22;9199;48.832;9.182;2024-02-16T04:33:20;10.60;99.90
18147;DHT22;9199;48.832;9.182;2024-02-16T04:35:47;10.60;99.90
18147;DHT22;9199;48.832;9.182;2024-02-16T04:38:16;10.60;99.90
18147;DHT22;9199;48.832;9.182;2024-02-16T04:40:44;10.60;99.90
18147;DHT22;9199;48.832;9.182;2024-02-16T04:43:10;10.60;99.90
18147;DHT22;9199;48.832;9.182;2024-02-16T04:45:37;10.60;99.90
18147;DHT22;9199;48.832;9.182;2024-02-16T04:48:04;10.60;99.90
18147;DHT22;9199;48.832;9.182;2024-02-16T04:50:32;10.60;99.90
18147;DHT22;9199;48.832;9.182;2024-02-16T04:52:59;10.60;99.90
18147;DHT22;9199;48.832;9.182;2024-02-16T04:55:26;10.60;99.90
18147;DHT22;9199;48.832;9.182;2024-02-16T04:57:54;10.70;99.90
18147;DHT22;9199;48.832;9.182;2024-02-16T05:00:22;10.70;99.90
18147;DHT22;9199;48.832;9.182;2024-02-16T05:02:50;10.70;99.90
18147;DHT22;9199;48.832;9.182;2024-02-16T05:05:16;10.70;99.90
18147;DHT22;9199;48.832;9.182;2024-02-16T05:07:43;10.60;99.90
18147;DHT22;9199;48.832;9.182;2024-02-16T05:10:13;10.60;99.90
18147;DHT22;9199;48.832;9.182;2024-02-16T05:12:39;10.60;99.90
18147;DHT22;9199;48.832;9.182;2024-02-16T05:15:08;10.60;99.90
18147;DHT22;9199;48.832;9.182;2024-02-16T05:17:35;10.50;99.90
18147;DHT22;9199;48.832;9.182;2024-02-16T05:20:02;10.50;99.90
18147;DHT22;9199;48.832;9.182;2024-02-16T05:22:29;10.50;99.90
18147;DHT22;9199;48.832;9.182;2024-02-16T05:24:55;10.50;99.90
18147;DHT22;9199;48.832;9.182;2024-02-16T05:27:22;10.50;99.90
18147;DHT22;9199;48.832;9.182;2024-02-16T05:29:49;10.50;99.90
18147;DHT22;9199;48.832;9.182;2024-02-16T05:32:17;10.50;99.90
18147;DHT22;9199;48.832;9.182;2024-02-16T05:34:44;10.60;99.90
18147;DHT22;9199;48.832;9.182;2024-02-16T05:37:10;10.60;99.90
18147;DHT22;9199;48.832;9.182;2024-02-16T05:39:37;10.60;99.90
18147;DHT22;9199;48.832;9.182;2024-02-16T05:42:19;10.60;99.90
18147;DHT22;9199;48.832;9.182;2024-02-16T05:44:47;10.60;99.90
18147;DHT22;9199;48.832;9.182;2024-02-16T05:47:14;10.60;99.90
18147;DHT22;9199;48.832;9.182;2024-02-16T05:49:42;10.60;99.90
18147;DHT22;9199;48.832;9.182;2024-02-16T05:52:09;10.60;99.90
18147;DHT22;9199;48.832;9.182;2024-02-16T05:54:44;10.60;99.90
18147;DHT22;9199;48.832;9.182;2024-02-16T05:57:12;10.50;99.90
18147;DHT22;9199;48.832;9.182;2024-02-16T05:59:39;10.60;99.90
18147;DHT22;9199;48.832;9.182;2024-02-16T06:02:07;10.50;99.90
18147;DHT22;9199;48.832;9.182;2024-02-16T06:04:34;10.70;99.90
18147;DHT22;9199;48.832;9.182;2024-02-16T06:07:02;11.10;99.90
18147;DHT22;9199;48.832;9.182;2024-02-16T06:09:30;11.60;99.90
18147;DHT22;9199;48.832;9.182;2024-02-16T06:12:01;11.70;99.90
18147;DHT22;9199;48.832;9.182;2024-02-16T06:14:29;11.80;99.90
18147;DHT22;9199;48.832;9.182;2024-02-16T06:17:05;11.70;99.90
18147;DHT22;9199;48.832;9.182;2024-02-16T06:19:33;11.50;99.90
18147;DHT22;9199;48.832;9.182;2024-02-16T06:22:02;11.20;99.90
18147;DHT22;9199;48.832;9.182;2024-02-16T06:24:29;11.00;99.90
18147;DHT22;9199;48.832;9.182;2024-02-16T06:26:55;10.90;99.90
18147;DHT22;9199;48.832;9.182;2024-02-16T06:29:22;10.70;99.90
18147;DHT22;9199;48.832;9.182;2024-02-16T06:31:49;10.60;99.90
18147;DHT22;9199;48.832;9.182;2024-02-16T06:34:15;10.60;99.90
18147;DHT22;9199;48.832;9.182;2024-02-16T06:36:42;10.50;99.90
18147;DHT22;9199;48.832;9.182;2024-02-16T06:39:11;10.50;99.90
18147;DHT22;9199;48.832;9.182;2024-02-16T06:41:42;10.50;99.90
18147;DHT22;9199;48.832;9.182;2024-02-16T06:44:09;10.40;99.90
18147;DHT22;9199;48.832;9.182;2024-02-16T06:46:36;10.40;99.90
18147;DHT22;9199;48.832;9.182;2024-02-16T06:49:03;10.40;99.90
18147;DHT22;9199;48.832;9.182;2024-02-16T06:51:29;10.30;99.90
18147;DHT22;9199;48.832;9.182;2024-02-16T06:53:56;10.30;99.90
18147;DHT22;9199;48.832;9.182;2024-02-16T06:56:23;10.30;99.90
18147;DHT22;9199;48.832;9.182;2024-02-16T06:58:50;10.20;99.90
18147;DHT22;9199;48.832;9.182;2024-02-16T07:01:17;10.20;99.90
18147;DHT22;9199;48.832;9.182;2024-02-16T07:03:44;10.20;99.90
18147;DHT22;9199;48.832;9.182;2024-02-16T07:06:11;10.20;99.90
18147;DHT22;9199;48.832;9.182;2024-02-16T07:08:39;10.30;99.90
18147;DHT22;9199;48.832;9.182;2024-02-16T07:11:06;10.40;99.90
18147;DHT22;9199;48.832;9.182;2024-02-16T07:13:34;10.50;99.90
18147;DHT22;9199;48.832;9.182;2024-02-16T07:16:01;10.50;99.90
18147;DHT22;9199;48.832;9.182;2024-02-16T07:18:29;10.60;99.90
18147;DHT22;9199;48.832;9.182;2024-02-16T07:20:56;10.60;99.90
18147;DHT22;9199;48.832;9.182;2024-02-16T07:23:24;10.60;99.90
18147;DHT22;9199;48.832;9.182;2024-02-16T07:25:51;10.60;99.90
18147;DHT22;9199;48.832;9.182;2024-02-16T07:28:20;10.70;99.90
18147;DHT22;9199;48.832;9.182;2024-02-16T07:30:49;10.80;99.90
18147;DHT22;9199;48.832;9.182;2024-02-16T07:33:15;10.90;99.90
18147;DHT22;9199;48.832;9.182;2024-02-16T07:35:42;10.90;99.90
18147;DHT22;9199;48.832;9.182;2024-02-16T07:38:09;10.90;99.90
18147;DHT22;9199;48.832;9.182;2024-02-16T07:40:36;10.90;99.90
18147;DHT22;9199;48.832;9.182;2024-02-16T07:43:03;10.90;99.90
18147;DHT22;9199;48.832;9.182;2024-02-16T07:45:31;11.00;99.90
18147;DHT22;9199;48.832;9.182;2024-02-16T07:47:59;10.90;99.90
18147;DHT22;9199;48.832;9.182;2024-02-16T07:50:30;10.90;99.90
18147;DHT22;9199;48.832;9.182;2024-02-16T07:52:57;10.90;99.90
18147;DHT22;9199;48.832;9.182;2024-02-16T07:55:23;10.90;99.90
18147;DHT22;9199;48.832;9.182;2024-02-16T07:57:51;11.00;99.90
18147;DHT22;9199;48.832;9.182;2024-02-16T08:00:18;11.00;99.90
18147;DHT22;9199;48.832;9.182;2024-02-16T08:02:45;11.00;99.90
18147;DHT22;9199;48.832;9.182;2024-02-16T08:05:13;11.10;99.90
18147;DHT22;9199;48.832;9.182;2024-02-16T08:07:40;11.10;99.90
18147;DHT22;9199;48.832;9.182;2024-02-16T08:10:08;11.20;99.90
18147;DHT22;9199;48.832;9.182;2024-02-16T08:12:35;11.30;99.90
18147;DHT22;9199;48.832;9.182;2024-02-16T08:15:04;11.70;99.90
18147;DHT22;9199;48.832;9.182;2024-02-16T08:17:32;12.30;99.90
18147;DHT22;9199;48.832;9.182;2024-02-16T08:19:59;13.00;99.90
18147;DHT22;9199;48.832;9.182;2024-02-16T08:22:28;13.80;99.90
18147;DHT22;9199;48.832;9.182;2024-02-16T08:24:54;14.40;99.90
18147;DHT22;9199;48.832;9.182;2024-02-16T08:27:21;14.90;99.90
18147;DHT22;9199;48.832;9.182;2024-02-16T08:29:48;15.40;99.90
18147;DHT22;9199;48.832;9.182;2024-02-16T08:32:14;16.00;99.90
18147;DHT22;9199;48.832;9.182;2024-02-16T08:34:41;16.70;99.90
18147;DHT22;9199;48.832;9.182;2024-02-16T08:37:08;17.50;99.90
18147;DHT22;9199;48.832;9.182;2024-02-16T08:39:38;17.80;99.90
18147;DHT22;9199;48.832;9.182;2024-02-16T08:42:05;18.20;99.80
18147;DHT22;9199;48.832;9.182;2024-02-16T08:44:33;18.40;98.50
18147;DHT22;9199;48.832;9.182;2024-02-16T08:47:00;18.40;98.30
18147;DHT22;9199;48.832;9.182;2024-02-16T08:49:27;18.50;98.00
18147;DHT22;9199;48.832;9.182;2024-02-16T08:51:53;18.10;98.90
18147;DHT22;9199;48.832;9.182;2024-02-16T08:54:20;17.70;99.30
18147;DHT22;9199;48.832;9.182;2024-02-16T08:56:48;17.60;99.00
18147;DHT22;9199;48.832;9.182;2024-02-16T08:59:15;17.30;98.70
18147;DHT22;9199;48.832;9.182;2024-02-16T09:01:43;17.30;99.10
18147;DHT22;9199;48.832;9.182;2024-02-16T09:04:09;17.70;98.60
18147;DHT22;9199;48.832;9.182;2024-02-16T09:06:36;18.40;97.50
18147;DHT22;9199;48.832;9.182;2024-02-16T09:09:04;18.90;97.50
18147;DHT22;9199;48.832;9.182;2024-02-16T09:11:32;19.60;95.50
18147;DHT22;9199;48.832;9.182;2024-02-16T09:14:00;20.20;94.70
18147;DHT22;9199;48.832;9.182;2024-02-16T09:16:27;20.50;93.70
18147;DHT22;9199;48.832;9.182;2024-02-16T09:18:54;20.80;92.70
18147;DHT22;9199;48.832;9.182;2024-02-16T09:21:20;21.00;92.80
18147;DHT22;9199;48.832;9.182;2024-02-16T09:23:49;21.30;91.50
18147;DHT22;9199;48.832;9.182;2024-02-16T09:26:16;21.60;90.90
18147;DHT22;9199;48.832;9.182;2024-02-16T09:28:42;21.90;90.40
18147;DHT22;9199;48.832;9.182;2024-02-16T09:31:14;22.00;90.10
18147;DHT22;9199;48.832;9.182;2024-02-16T09:33:41;21.90;87.80
18147;DHT22;9199;48.832;9.182;2024-02-16T09:36:07;21.80;88.30
18147;DHT22;9199;48.832;9.182;2024-02-16T09:38:34;22.10;87.00
18147;DHT22;9199;48.832;9.182;2024-02-16T09:41:01;22.60;85.00
18147;DHT22;9199;48.832;9.182;2024-02-16T09:43:29;22.50;86.40
18147;DHT22;9199;48.832;9.182;2024-02-16T09:45:58;22.10;85.40
18147;DHT22;9199;48.832;9.182;2024-02-16T09:48:27;21.80;85.00
18147;DHT22;9199;48.832;9.182;2024-02-16T09:50:54;21.30;85.20
18147;DHT22;9199;48.832;9.182;2024-02-16T09:53:24;20.80;87.00
18147;DHT22;9199;48.832;9.182;2024-02-16T09:55:51;20.30;87.70
18147;DHT22;9199;48.832;9.182;2024-02-16T09:58:18;19.70;90.30
18147;DHT22;9199;48.832;9.182;2024-02-16T10:00:50;19.70;90.90
18147;DHT22;9199;48.832;9.182;2024-02-16T10:03:24;19.90;90.80
18147;DHT22;9199;48.832;9.182;2024-02-16T10:05:52;20.60;90.00
18147;DHT22;9199;48.832;9.182;2024-02-16T10:08:19;21.00;89.10
18147;DHT22;9199;48.832;9.182;2024-02-16T10:10:46;21.50;87.90
18147;DHT22;9199;48.832;9.182;2024-02-16T10:13:15;22.20;85.70
18147;DHT22;9199;48.832;9.182;2024-02-16T10:15:42;22.70;83.90
18147;DHT22;9199;48.832;9.182;2024-02-16T10:18:10;22.30;83.90
18147;DHT22;9199;48.832;9.182;2024-02-16T10:20:38;21.90;84.50
18147;DHT22;9199;48.832;9.182;2024-02-16T10:23:07;21.30;84.70
18147;DHT22;9199;48.832;9.182;2024-02-16T10:25:35;20.80;87.10
18147;DHT22;9199;48.832;9.182;2024-02-16T10:28:04;20.50;86.70
18147;DHT22;9199;48.832;9.182;2024-02-16T10:30:35;20.50;86.40
18147;DHT22;9199;48.832;9.182;2024-02-16T10:33:03;20.70;87.00
18147;DHT22;9199;48.832;9.182;2024-02-16T10:35:30;20.70;85.10
18147;DHT22;9199;48.832;9.182;2024-02-16T10:38:00;20.90;85.50
18147;DHT22;9199;48.832;9.182;2024-02-16T10:40:32;20.90;84.70
18147;DHT22;9199;48.832;9.182;2024-02-16T10:43:03;20.90;85.20
18147;DHT22;9199;48.832;9.182;2024-02-16T10:45:32;21.00;85.50
18147;DHT22;9199;48.832;9.182;2024-02-16T10:47:59;21.00;85.50
18147;DHT22;9199;48.832;9.182;2024-02-16T10:50:25;21.00;85.70
18147;DHT22;9199;48.832;9.182;2024-02-16T10:52:53;20.80;86.20
18147;DHT22;9199;48.832;9.182;2024-02-16T10:55:22;20.70;86.20
18147;DHT22;9199;48.832;9.182;2024-02-16T10:57:51;20.50;86.20
18147;DHT22;9199;48.832;9.182;2024-02-16T11:00:21;20.40;87.40
18147;DHT22;9199;48.832;9.182;2024-02-16T11:02:54;20.30;87.00
18147;DHT22;9199;48.832;9.182;2024-02-16T11:05:35;20.10;87.80
18147;DHT22;9199;48.832;9.182;2024-02-16T11:08:02;20.00;89.20
18147;DHT22;9199;48.832;9.182;2024-02-16T11:10:29;20.00;89.40
18147;DHT22;9199;48.832;9.182;2024-02-16T11:13:02;20.00;88.70
18147;DHT22;9199;48.832;9.182;2024-02-16T11:15:30;19.80;89.50
18147;DHT22;9199;48.832;9.182;2024-02-16T11:17:57;19.70;90.00
18147;DHT22;9199;48.832;9.182;2024-02-16T11:20:25;19.80;90.40
18147;DHT22;9199;48.832;9.182;2024-02-16T11:22:52;19.90;90.30
18147;DHT22;9199;48.832;9.182;2024-02-16T11:25:30;20.00;89.30
18147;DHT22;9199;48.832;9.182;2024-02-16T11:27:56;20.30;89.10
18147;DHT22;9199;48.832;9.182;2024-02-16T11:30:25;20.50;88.30
18147;DHT22;9199;48.832;9.182;2024-02-16T11:32:52;20.60;88.60
18147;DHT22;9199;48.832;9.182;2024-02-16T11:35:18;20.60;90.10
18147;DHT22;9199;48.832;9.182;2024-02-16T11:37:45;20.60;89.50
18147;DHT22;9199;48.832;9.182;2024-02-16T11:40:13;20.50;90.00
18147;DHT22;9199;48.832;9.182;2024-02-16T11:42:39;20.30;90.40
18147;DHT22;9199;48.832;9.182;2024-02-16T11:45:10;19.90;91.60
18147;DHT22;9199;48.832;9.182;2024-02-16T11:47:38;19.60;91.60
18147;DHT22;9199;48.832;9.182;2024-02-16T11:50:07;19.50;91.80
18147;DHT22;9199;48.832;9.182;2024-02-16T11:52:36;19.40;91.60
18147;DHT22;9199;48.832;9.182;2024-02-16T11:55:07;19.30;92.10
18147;DHT22;9199;48.832;9.182;2024-02-16T11:57:34;19.30;91.90
18147;DHT22;9199;48.832;9.182;2024-02-16T12:00:01;19.20;92.20
18147;DHT22;9199;48.832;9.182;2024-02-16T12:02:32;19.20;92.60
18147;DHT22;9199;48.832;9.182;2024-02-16T12:05:00;19.20;92.90
18147;DHT22;9199;48.832;9.182;2024-02-16T12:07:27;19.20;92.40
18147;DHT22;9199;48.832;9.182;2024-02-16T12:09:57;19.30;92.20
18147;DHT22;9199;48.832;9.182;2024-02-16T12:12:24;19.40;92.10
18147;DHT22;9199;48.832;9.182;2024-02-16T12:14:51;19.60;91.90
18147;DHT22;9199;48.832;9.182;2024-02-16T12:17:18;19.50;91.90
18147;DHT22;9199;48.832;9.182;2024-02-16T12:19:45;19.50;92.00
18147;DHT22;9199;48.832;9.182;2024-02-16T12:22:17;19.60;92.20
18147;DHT22;9199;48.832;9.182;2024-02-16T12:24:44;19.70;92.00
18147;DHT22;9199;48.832;9.182;2024-02-16T12:27:11;19.60;92.10
18147;DHT22;9199;48.832;9.182;2024-02-16T12:29:38;19.60;92.40
18147;DHT22;9199;48.832;9.182;2024-02-16T12:32:06;19.40;92.50
18147;DHT22;9199;48.832;9.182;2024-02-16T12:34:34;19.40;92.50
18147;DHT22;9199;48.832;9.182;2024-02-16T12:37:04;19.40;92.70
18147;DHT22;9199;48.832;9.182;2024-02-16T12:39:33;19.20;93.60
18147;DHT22;9199;48.832;9.182;2024-02-16T12:42:00;19.10;93.90
18147;DHT22;9199;48.832;9.182;2024-02-16T12:44:27;19.10;93.80
18147;DHT22;9199;48.832;9.182;2024-02-16T12:46:55;19.10;94.00
18147;DHT22;9199;48.832;9.182;2024-02-16T12:49:21;19.20;94.40
18147;DHT22;9199;48.832;9.182;2024-02-16T12:51:48;19.30;94.20
18147;DHT22;9199;48.832;9.182;2024-02-16T12:54:15;19.20;94.70
18147;DHT22;9199;48.832;9.182;2024-02-16T12:56:46;19.10;95.00
18147;DHT22;9199;48.832;9.182;2024-02-16T12:59:13;19.10;95.00
18147;DHT22;9199;48.832;9.182;2024-02-16T13:01:40;19.20;95.00
18147;DHT22;9199;48.832;9.182;2024-02-16T13:04:08;19.10;95.60
18147;DHT22;9199;48.832;9.182;2024-02-16T13:06:35;19.20;95.30
18147;DHT22;9199;48.832;9.182;2024-02-16T13:09:02;19.20;95.50
18147;DHT22;9199;48.832;9.182;2024-02-16T13:11:31;19.20;95.50
18147;DHT22;9199;48.832;9.182;2024-02-16T13:14:00;19.20;95.80
18147;DHT22;9199;48.832;9.182;2024-02-16T13:16:27;19.20;95.90
18147;DHT22;9199;48.832;9.182;2024-02-16T13:18:53;19.30;95.60
18147;DHT22;9199;48.832;9.182;2024-02-16T13:21:20;19.30;96.30
18147;DHT22;9199;48.832;9.182;2024-02-16T13:23:47;19.20;95.80
18147;DHT22;9199;48.832;9.182;2024-02-16T13:26:14;19.30;96.00
18147;DHT22;9199;48.832;9.182;2024-02-16T13:28:40;19.30;95.90
18147;DHT22;9199;48.832;9.182;2024-02-16T13:31:08;19.40;96.10
18147;DHT22;9199;48.832;9.182;2024-02-16T13:33:36;19.50;96.00
18147;DHT22;9199;48.832;9.182;2024-02-16T13:36:03;19.60;95.80
18147;DHT22;9199;48.832;9.182;2024-02-16T13:38:30;19.80;95.70
18147;DHT22;9199;48.832;9.182;2024-02-16T13:40:57;19.80;95.60
18147;DHT22;9199;48.832;9.182;2024-02-16T13:43:24;19.50;95.90
18147;DHT22;9199;48.832;9.182;2024-02-16T13:45:52;19.40;96.10
18147;DHT22;9199;48.832;9.182;2024-02-16T13:48:20;19.50;96.20
18147;DHT22;9199;48.832;9.182;2024-02-16T13:50:47;19.60;96.60
18147;DHT22;9199;48.832;9.182;2024-02-16T13:53:14;19.50;96.00
18147;DHT22;9199;48.832;9.182;2024-02-16T13:55:42;19.40;96.40
18147;DHT22;9199;48.832;9.182;2024-02-16T13:58:09;19.40;96.50
18147;DHT22;9199;48.832;9.182;2024-02-16T14:00:36;19.40;96.80
18147;DHT22;9199;48.832;9.182;2024-02-16T14:03:04;19.30;96.70
18147;DHT22;9199;48.832;9.182;2024-02-16T14:05:32;19.10;97.10
18147;DHT22;9199;48.832;9.182;2024-02-16T14:07:58;18.90;97.70
18147;DHT22;9199;48.832;9.182;2024-02-16T14:10:25;18.80;97.50
18147;DHT22;9199;48.832;9.182;2024-02-16T14:12:52;18.70;97.90
18147;DHT22;9199;48.832;9.182;2024-02-16T14:15:19;18.60;98.00
18147;DHT22;9199;48.832;9.182;2024-02-16T14:17:45;18.50;98.50
18147;DHT22;9199;48.832;9.182;2024-02-16T14:20:12;18.30;98.10
18147;DHT22;9199;48.832;9.182;2024-02-16T14:22:40;18.20;98.30
18147;DHT22;9199;48.832;9.182;2024-02-16T14:25:07;18.10;98.70
18147;DHT22;9199;48.832;9.182;2024-02-16T14:27:36;17.90;98.80
18147;DHT22;9199;48.832;9.182;2024-02-16T14:30:03;17.80;99.10
18147;DHT22;9199;48.832;9.182;2024-02-16T14:32:30;17.70;99.20
18147;DHT22;9199;48.832;9.182;2024-02-16T14:34:57;17.60;99.40
18147;DHT22;9199;48.832;9.182;2024-02-16T14:37:24;17.60;99.50
18147;DHT22;9199;48.832;9.182;2024-02-16T14:39:52;17.50;99.80
18147;DHT22;9199;48.832;9.182;2024-02-16T14:42:22;17.50;99.90
18147;DHT22;9199;48.832;9.182;2024-02-16T14:44:49;17.50;99.90
18147;DHT22;9199;48.832;9.182;2024-02-16T14:47:16;17.50;99.90
18147;DHT22;9199;48.832;9.182;2024-02-16T14:49:42;17.50;99.90
18147;DHT22;9199;48.832;9.182;2024-02-16T14:52:09;17.50;99.90
18147;DHT22;9199;48.832;9.182;2024-02-16T14:54:37;17.40;99.90
18147;DHT22;9199;48.832;9.182;2024-02-16T14:57:06;17.30;99.90
18147;DHT22;9199;48.832;9.182;2024-02-16T14:59:32;17.20;99.90
18147;DHT22;9199;48.832;9.182;2024-02-16T15:01:59;17.20;99.90
18147;DHT22;9199;48.832;9.182;2024-02-16T15:04:27;17.10;99.90
18147;DHT22;9199;48.832;9.182;2024-02-16T15:06:56;17.10;99.90
18147;DHT22;9199;48.832;9.182;2024-02-16T15:09:22;17.10;99.90
18147;DHT22;9199;48.832;9.182;2024-02-16T15:11:49;17.10;99.90
18147;DHT22;9199;48.832;9.182;2024-02-16T15:14:17;17.10;99.90
18147;DHT22;9199;48.832;9.182;2024-02-16T15:16:44;17.10;99.90
18147;DHT22;9199;48.832;9.182;2024-02-16T15:19:10;17.20;99.90
18147;DHT22;9199;48.832;9.182;2024-02-16T15:21:37;17.20;99.90
18147;DHT22;9199;48.832;9.182;2024-02-16T15:24:05;17.20;99.90
18147;DHT22;9199;48.832;9.182;2024-02-16T15:26:32;17.30;99.90
18147;DHT22;9199;48.832;9.182;2024-02-16T15:29:00;17.30;99.90
18147;DHT22;9199;48.832;9.182;2024-02-16T15:31:28;17.40;99.90
18147;DHT22;9199;48.832;9.182;2024-02-16T15:33:54;17.30;99.90
18147;DHT22;9199;48.832;9.182;2024-02-16T15:36:21;17.30;99.90
18147;DHT22;9199;48.832;9.182;2024-02-16T15:38:48;17.30;99.90
18147;DHT22;9199;48.832;9.182;2024-02-16T15:41:16;17.20;99.90
18147;DHT22;9199;48.832;9.182;2024-02-16T15:43:43;17.10;99.90
18147;DHT22;9199;48.832;9.182;2024-02-16T15:46:09;17.10;99.90